Time;durP1;ratioP1;P1;durP2;ratioP2;P2;SDS_P1;SDS_P2;PMS_P1;PMS_P2;Temp;Humidity;BMP_temperature;BMP_pressure;BME280_temperature;BME280_humidity;BME280_pressure;Samples;Min_cycle;Max_cycle;Signal;HPM_P1;HPM_P2
2021/11/14 00:01:50;;;;;;;11.45;9.80;;;9.50;99.90;;;;;;5040815;28;20439;-51
2021/11/14 00:04:16;;;;;;;10.40;9.00;;;9.80;99.90;;;;;;5034392;28;20182;-51
2021/11/14 00:06:43;;;;;;;11.00;9.23;;;9.70;99.90;;;;;;5031216;28;20190;-51
2021/11/14 00:09:09;;;;;;;12.27;10.40;;;9.80;99.90;;;;;;5027570;28;20499;-51
2021/11/14 00:11:35;;;;;;;13.52;9.85;;;9.70;99.90;;;;;;5031251;28;20701;-51
2021/11/14 00:14:01;;;;;;;11.20;10.10;;;9.60;99.90;;;;;;5029354;28;20222;-51
2021/11/14 00:16:27;;;;;;;10.50;9.23;;;9.80;99.90;;;;;;5030390;28;20237;-51
2021/11/14 00:18:54;;;;;;;9.80;8.90;;;9.70;99.90;;;;;;5028630;28;20244;-51
2021/11/14 00:21:22;;;;;;;10.85;9.75;;;9.70;99.90;;;;;;5044245;28;20456;-50
2021/11/14 00:23:48;;;;;;;10.80;9.73;;;9.60;99.90;;;;;;5030203;28;20181;-51
2021/11/14 00:26:14;;;;;;;13.20;9.83;;;9.40;99.90;;;;;;5035274;28;20186;-51
2021/11/14 00:28:42;;;;;;;11.10;9.10;;;9.40;99.90;;;;;;5045307;28;20887;-50
2021/11/14 00:31:12;;;;;;;10.32;9.23;;;9.80;99.90;;;;;;5047664;28;20209;-51
2021/11/14 00:33:42;;;;;;;10.43;9.23;;;9.70;99.90;;;;;;5036747;28;20670;-51
2021/11/14 00:36:08;;;;;;;9.85;8.77;;;9.60;99.90;;;;;;5035024;28;20247;-50
2021/11/14 00:38:34;;;;;;;10.90;9.65;;;9.70;99.90;;;;;;5047896;28;20468;-50
2021/11/14 00:41:00;;;;;;;11.57;9.73;;;9.50;99.90;;;;;;5034482;28;20624;-51
2021/11/14 00:43:26;;;;;;;12.87;10.60;;;9.40;99.90;;;;;;5029522;28;20245;-50
2021/11/14 00:45:51;;;;;;;14.23;10.97;;;9.30;99.90;;;;;;5034592;28;20459;-50
2021/11/14 00:48:17;;;;;;;13.13;10.23;;;9.50;99.90;;;;;;5037144;28;20852;-51
2021/11/14 00:50:45;;;;;;;14.35;11.55;;;9.70;99.90;;;;;;5032384;28;20693;-50
2021/11/14 00:53:12;;;;;;;11.35;10.15;;;9.60;99.90;;;;;;5028982;28;20237;-50
2021/11/14 00:55:39;;;;;;;11.15;9.90;;;9.60;99.90;;;;;;5031607;28;20170;-50
2021/11/14 00:58:05;;;;;;;13.38;11.35;;;9.50;99.90;;;;;;5042959;28;20186;-51
2021/11/14 01:00:32;;;;;;;16.13;14.00;;;9.80;99.90;;;;;;5050831;28;20209;-50
2021/11/14 01:03:00;;;;;;;13.75;12.35;;;9.90;99.90;;;;;;5044501;28;20811;-50
2021/11/14 01:05:26;;;;;;;13.18;11.85;;;9.80;99.90;;;;;;5033390;28;20198;-51
2021/11/14 01:07:52;;;;;;;13.48;11.55;;;9.70;99.90;;;;;;5043919;28;20677;-51
2021/11/14 01:10:23;;;;;;;13.70;12.25;;;9.80;99.90;;;;;;5042755;28;20210;-51
2021/11/14 01:12:48;;;;;;;15.32;11.90;;;9.80;99.90;;;;;;5034371;28;20202;-51
2021/11/14 01:15:16;;;;;;;13.50;11.93;;;9.60;99.90;;;;;;5036500;28;20202;-51
2021/11/14 01:17:43;;;;;;;16.15;14.10;;;9.60;99.90;;;;;;5032524;28;20920;-50
2021/11/14 01:20:12;;;;;;;17.00;14.43;;;9.60;99.90;;;;;;5030557;28;20202;-51
2021/11/14 01:22:39;;;;;;;17.75;14.85;;;9.40;99.90;;;;;;5025667;28;20644;-50
2021/11/14 01:25:06;;;;;;;16.80;14.90;;;9.50;99.90;;;;;;5014745;28;20578;-51
2021/11/14 01:27:32;;;;;;;21.17;16.00;;;9.40;99.90;;;;;;5039884;28;20182;-51
2021/11/14 01:29:58;;;;;;;20.02;15.73;;;9.40;99.90;;;;;;5045806;28;20214;-50
2021/11/14 01:32:24;;;;;;;19.00;15.13;;;9.50;99.90;;;;;;5039064;28;20297;-50
2021/11/14 01:34:49;;;;;;;18.23;15.27;;;9.70;99.90;;;;;;5037984;28;20973;-51
2021/11/14 01:37:15;;;;;;;16.50;14.80;;;9.60;99.90;;;;;;5034634;28;20187;-51
2021/11/14 01:39:41;;;;;;;15.90;14.20;;;9.60;99.90;;;;;;5034922;28;20722;-50
2021/11/14 01:42:06;;;;;;;18.30;14.60;;;9.60;99.90;;;;;;5034901;28;20206;-50
2021/11/14 01:44:32;;;;;;;16.87;14.53;;;9.80;99.90;;;;;;5031475;28;20679;-50
2021/11/14 01:46:58;;;;;;;17.40;15.00;;;9.70;99.90;;;;;;5047828;28;20267;-51
2021/11/14 01:49:24;;;;;;;16.60;14.50;;;9.70;99.90;;;;;;5039617;28;20655;-51
2021/11/14 01:51:49;;;;;;;15.50;13.70;;;9.80;99.90;;;;;;5032006;28;20193;-51
2021/11/14 01:54:19;;;;;;;18.13;13.90;;;9.80;99.90;;;;;;5037805;28;20244;-51
2021/11/14 01:56:48;;;;;;;17.73;15.10;;;9.90;99.90;;;;;;5032947;28;20170;-51
2021/11/14 01:59:14;;;;;;;18.85;13.25;;;9.70;99.90;;;;;;5048880;28;20547;-51
2021/11/14 02:01:40;;;;;;;15.55;12.10;;;10.10;99.90;;;;;;5041974;28;20177;-51
2021/11/14 02:04:07;;;;;;;17.33;15.50;;;9.80;99.90;;;;;;5038309;28;20665;-50
2021/11/14 02:09:08;;;;;;;17.10;14.70;;;9.60;99.90;;;;;;5247691;22;20244;-51
2021/11/14 02:11:35;;;;;;;17.50;15.60;;;9.80;99.90;;;;;;5053181;28;20613;-50
2021/11/14 02:14:01;;;;;;;20.48;16.75;;;9.90;99.90;;;;;;5051624;28;20579;-51
2021/11/14 02:16:28;;;;;;;21.02;15.30;;;9.60;99.90;;;;;;5049206;28;20614;-51
2021/11/14 02:18:54;;;;;;;19.90;16.17;;;9.00;99.90;;;;;;5045802;28;20196;-50
2021/11/14 02:21:21;;;;;;;16.97;15.23;;;9.70;99.90;;;;;;5052409;28;20305;-51
2021/11/14 02:23:47;;;;;;;18.90;14.73;;;9.60;99.90;;;;;;5042012;28;20444;-51
2021/11/14 02:26:13;;;;;;;21.83;18.50;;;9.50;99.90;;;;;;5041961;28;20264;-50
2021/11/14 02:28:40;;;;;;;20.10;16.03;;;9.00;99.90;;;;;;5037115;28;20190;-50
2021/11/14 02:31:06;;;;;;;17.30;14.75;;;9.50;99.90;;;;;;5050925;28;20838;-51
2021/11/14 02:33:32;;;;;;;18.40;16.47;;;9.40;99.90;;;;;;5059861;28;20202;-50
2021/11/14 02:36:07;;;;;;;17.88;15.20;;;9.30;99.90;;;;;;5050589;28;20620;-51
2021/11/14 02:38:34;;;;;;;20.35;17.00;;;9.70;99.90;;;;;;5065211;28;20232;-50
2021/11/14 02:41:00;;;;;;;19.75;17.25;;;8.90;99.90;;;;;;5066750;28;20236;-51
2021/11/14 02:43:27;;;;;;;21.75;18.48;;;9.00;99.90;;;;;;5052697;28;20193;-50
2021/11/14 02:45:53;;;;;;;21.30;16.95;;;9.40;99.90;;;;;;5052197;28;20233;-50
2021/11/14 02:48:19;;;;;;;21.48;18.25;;;9.30;99.90;;;;;;5039734;28;20236;-50
2021/11/14 02:50:48;;;;;;;19.90;17.77;;;9.50;99.90;;;;;;5053708;28;20211;-51
2021/11/14 02:53:14;;;;;;;19.30;17.30;;;9.30;99.90;;;;;;5049154;28;20666;-51
2021/11/14 02:55:40;;;;;;;21.67;17.40;;;9.50;99.90;;;;;;5058086;28;20200;-50
2021/11/14 02:58:06;;;;;;;20.23;17.40;;;9.20;99.90;;;;;;5057778;28;20272;-50
2021/11/14 03:00:37;;;;;;;22.63;19.15;;;9.30;99.90;;;;;;5056979;28;20201;-51
2021/11/14 03:03:03;;;;;;;20.55;16.40;;;9.60;99.90;;;;;;5052210;28;20180;-51
2021/11/14 03:05:29;;;;;;;19.20;17.05;;;9.50;99.90;;;;;;5051813;28;20184;-50
2021/11/14 03:07:55;;;;;;;19.10;17.10;;;9.50;99.90;;;;;;5056756;28;20173;-51
2021/11/14 03:10:27;;;;;;;21.97;17.37;;;9.20;99.90;;;;;;5042897;28;20256;-51
2021/11/14 03:12:59;;;;;;;21.85;17.40;;;9.40;99.90;;;;;;5050827;28;20347;-50
2021/11/14 03:15:27;;;;;;;23.60;19.23;;;9.30;99.90;;;;;;5064598;28;20185;-51
2021/11/14 03:17:53;;;;;;;21.88;18.60;;;9.50;99.90;;;;;;5046881;28;20182;-51
2021/11/14 03:20:18;;;;;;;23.50;16.80;;;9.50;99.90;;;;;;5049909;28;20350;-51
2021/11/14 03:22:44;;;;;;;20.20;16.70;;;9.40;99.90;;;;;;5058697;28;20713;-50
2021/11/14 03:25:10;;;;;;;22.33;18.70;;;9.20;99.90;;;;;;5067842;28;20200;-51
2021/11/14 03:27:36;;;;;;;21.17;18.80;;;8.70;99.90;;;;;;5069970;28;20243;-51
2021/11/14 03:30:04;;;;;;;19.03;17.03;;;9.10;99.90;;;;;;5070704;28;20439;-51
2021/11/14 03:32:30;;;;;;;19.98;17.88;;;9.20;99.90;;;;;;5067838;28;20201;-51
2021/11/14 03:34:55;;;;;;;18.43;16.00;;;9.60;99.90;;;;;;5051380;28;20524;-51
2021/11/14 03:37:22;;;;;;;18.33;16.40;;;9.40;99.90;;;;;;5051380;28;20182;-51
2021/11/14 03:39:48;;;;;;;21.23;16.17;;;9.10;99.90;;;;;;5044331;28;20678;-51
2021/11/14 03:42:15;;;;;;;17.92;16.02;;;9.20;99.90;;;;;;5059470;28;20219;-51
2021/11/14 03:44:41;;;;;;;21.17;18.55;;;9.10;99.90;;;;;;5056379;28;20563;-51
2021/11/14 03:47:08;;;;;;;20.95;16.30;;;9.10;99.90;;;;;;5064964;28;20190;-51
2021/11/14 03:49:34;;;;;;;19.65;17.55;;;9.20;99.90;;;;;;5058959;28;20673;-51
2021/11/14 03:52:00;;;;;;;19.80;17.70;;;9.70;99.90;;;;;;5058779;28;20192;-51
2021/11/14 03:54:26;;;;;;;21.00;17.40;;;9.40;99.90;;;;;;5043030;28;20182;-51
2021/11/14 03:56:52;;;;;;;20.30;16.60;;;9.40;99.90;;;;;;5057533;28;20483;-51
2021/11/14 03:59:17;;;;;;;20.33;16.80;;;9.20;99.90;;;;;;5049666;28;20475;-51
2021/11/14 04:01:44;;;;;;;20.13;16.57;;;9.40;99.90;;;;;;5052303;28;20439;-51
2021/11/14 04:04:09;;;;;;;20.55;16.20;;;9.50;99.90;;;;;;5060014;28;20447;-51
2021/11/14 04:06:35;;;;;;;19.37;16.87;;;9.50;99.90;;;;;;5047003;28;20256;-51
2021/11/14 04:09:01;;;;;;;22.10;17.80;;;9.50;99.90;;;;;;5042812;28;20685;-51
2021/11/14 04:11:26;;;;;;;20.33;16.63;;;9.10;99.90;;;;;;5059657;28;20204;-51
2021/11/14 04:13:53;;;;;;;18.47;16.50;;;9.60;99.90;;;;;;5059789;28;20209;-52
2021/11/14 04:16:19;;;;;;;18.65;16.20;;;9.10;99.90;;;;;;5049827;28;20513;-51
2021/11/14 04:18:45;;;;;;;17.90;15.75;;;9.50;99.90;;;;;;5046984;28;20182;-50
2021/11/14 04:21:12;;;;;;;17.02;15.27;;;9.70;99.90;;;;;;5049915;28;20208;-50
2021/11/14 04:23:38;;;;;;;18.60;16.60;;;9.20;99.90;;;;;;5054656;28;20185;-51
2021/11/14 04:26:06;;;;;;;20.50;17.08;;;9.30;99.90;;;;;;5068820;28;20306;-51
2021/11/14 04:28:33;;;;;;;19.77;17.52;;;9.40;99.90;;;;;;5049057;28;20206;-50
2021/11/14 04:30:59;;;;;;;22.48;18.95;;;8.90;99.90;;;;;;5061562;28;20284;-51
2021/11/14 04:33:25;;;;;;;19.55;16.35;;;9.40;99.90;;;;;;5050568;28;20201;-51
2021/11/14 04:35:51;;;;;;;22.20;16.95;;;9.40;99.90;;;;;;5053543;28;20184;-50
2021/11/14 04:38:18;;;;;;;20.38;17.27;;;9.40;99.90;;;;;;5034320;28;20595;-50
2021/11/14 04:40:45;;;;;;;19.85;15.98;;;9.10;99.90;;;;;;5061603;28;20201;-51
2021/11/14 04:43:14;;;;;;;20.27;18.27;;;9.50;99.90;;;;;;5046683;28;20191;-50
2021/11/14 04:45:40;;;;;;;19.65;16.52;;;9.70;99.90;;;;;;5063448;28;20220;-51
2021/11/14 04:48:07;;;;;;;19.25;17.20;;;9.70;99.90;;;;;;5060191;28;20271;-50
2021/11/14 04:50:33;;;;;;;18.90;16.52;;;9.80;99.90;;;;;;5053550;28;20208;-51
2021/11/14 04:52:59;;;;;;;19.60;17.50;;;9.60;99.90;;;;;;5048807;28;20213;-51
2021/11/14 04:55:25;;;;;;;20.38;16.70;;;9.40;99.90;;;;;;5052401;28;20659;-51
2021/11/14 04:57:51;;;;;;;19.80;16.90;;;9.10;99.90;;;;;;5055122;28;20189;-50
2021/11/14 05:00:21;;;;;;;19.35;16.75;;;9.50;99.90;;;;;;5055917;28;20208;-51
2021/11/14 05:02:47;;;;;;;18.50;16.48;;;9.20;99.90;;;;;;5054251;28;20189;-51
2021/11/14 05:05:13;;;;;;;18.02;16.00;;;9.70;99.90;;;;;;5056069;28;20561;-50
2021/11/14 05:07:40;;;;;;;18.40;16.50;;;9.50;99.90;;;;;;5056917;28;20210;-50
2021/11/14 05:10:06;;;;;;;18.17;15.37;;;9.10;99.90;;;;;;5059669;28;20216;-50
2021/11/14 05:12:32;;;;;;;20.50;16.50;;;9.40;99.90;;;;;;5061405;28;20259;-51
2021/11/14 05:14:58;;;;;;;20.20;17.27;;;8.90;99.90;;;;;;5057768;28;20194;-51
2021/11/14 05:17:23;;;;;;;19.30;16.50;;;9.50;99.90;;;;;;5048242;28;20432;-52
2021/11/14 05:19:49;;;;;;;17.87;15.97;;;9.50;99.90;;;;;;5053729;28;20197;-52
2021/11/14 05:22:15;;;;;;;17.80;15.18;;;9.30;99.90;;;;;;5054102;28;20182;-52
2021/11/14 05:24:41;;;;;;;19.13;16.77;;;9.30;99.90;;;;;;5060978;28;20208;-51
2021/11/14 05:27:06;;;;;;;21.17;17.93;;;9.30;99.90;;;;;;5052063;28;20428;-51
2021/11/14 05:29:32;;;;;;;20.57;17.33;;;9.40;99.90;;;;;;5052934;28;20236;-51
2021/11/14 05:31:58;;;;;;;21.77;18.20;;;9.40;99.90;;;;;;5052788;28;20199;-51
2021/11/14 05:34:23;;;;;;;19.47;16.37;;;9.10;99.90;;;;;;5047827;28;20193;-52
2021/11/14 05:36:49;;;;;;;20.17;16.70;;;9.10;99.90;;;;;;5045571;28;20676;-51
2021/11/14 05:39:15;;;;;;;21.67;18.00;;;9.10;99.90;;;;;;5050064;28;20293;-51
2021/11/14 05:41:40;;;;;;;22.00;17.00;;;9.30;99.90;;;;;;5053247;28;20186;-52
2021/11/14 05:44:07;;;;;;;19.93;17.00;;;9.30;99.90;;;;;;5050335;28;20558;-51
2021/11/14 05:46:33;;;;;;;20.13;17.27;;;9.20;99.90;;;;;;5038721;28;20204;-52
2021/11/14 05:48:59;;;;;;;19.00;16.83;;;9.40;99.90;;;;;;5041936;28;20683;-52
2021/11/14 05:51:25;;;;;;;22.37;18.17;;;9.20;99.90;;;;;;5050558;28;20852;-52
2021/11/14 05:53:50;;;;;;;22.23;18.53;;;9.30;99.90;;;;;;5044840;28;20212;-52
2021/11/14 05:56:16;;;;;;;18.80;16.67;;;9.30;99.90;;;;;;5056791;28;20177;-52
2021/11/14 05:58:48;;;;;;;21.63;17.73;;;9.60;99.90;;;;;;5052631;28;20712;-51
2021/11/14 06:06:34;;;;;;;19.58;17.13;;;9.30;99.90;;;;;;4995023;28;20184;-54
2021/11/14 06:08:59;;;;;;;18.53;16.27;;;9.50;99.90;;;;;;5058953;28;20207;-51
2021/11/14 06:11:26;;;;;;;21.00;16.23;;;9.60;99.90;;;;;;5059884;28;20663;-51
2021/11/14 06:13:53;;;;;;;20.35;17.95;;;9.40;99.90;;;;;;5047659;28;20697;-51
2021/11/14 06:16:20;;;;;;;23.48;17.65;;;9.30;99.90;;;;;;5047890;28;20196;-51
2021/11/14 06:18:46;;;;;;;21.25;17.52;;;9.10;99.90;;;;;;5053573;28;20904;-51
2021/11/14 06:21:12;;;;;;;19.97;16.03;;;9.10;99.90;;;;;;5052740;28;20241;-50
2021/11/14 06:23:37;;;;;;;17.88;15.88;;;9.20;99.90;;;;;;5029506;28;20430;-51
2021/11/14 06:26:03;;;;;;;19.97;17.23;;;9.10;99.90;;;;;;5051156;28;20290;-51
2021/11/14 06:28:29;;;;;;;22.13;18.35;;;9.10;99.90;;;;;;5048472;28;21215;-52
2021/11/14 06:30:56;;;;;;;27.87;19.00;;;9.20;99.90;;;;;;5037647;28;20218;-52
2021/11/14 06:33:22;;;;;;;23.95;19.10;;;9.30;99.90;;;;;;5060355;28;20505;-52
2021/11/14 06:35:47;;;;;;;21.63;17.13;;;9.00;99.90;;;;;;5053067;28;20528;-51
2021/11/14 06:38:13;;;;;;;23.10;17.93;;;9.00;99.90;;;;;;5053447;28;20181;-52
2021/11/14 06:40:39;;;;;;;24.10;17.17;;;9.10;99.90;;;;;;5051998;28;20714;-52
2021/11/14 06:43:04;;;;;;;21.07;17.40;;;9.00;99.90;;;;;;5031721;28;20187;-52
2021/11/14 06:45:30;;;;;;;18.50;16.10;;;9.50;99.90;;;;;;5055053;28;20439;-52
2021/11/14 06:47:56;;;;;;;19.87;17.70;;;9.70;99.90;;;;;;5041684;28;20200;-52
2021/11/14 06:50:22;;;;;;;19.07;16.03;;;9.40;99.90;;;;;;5044985;28;20210;-52
2021/11/14 06:52:49;;;;;;;20.38;16.45;;;9.30;99.90;;;;;;5044330;28;20210;-51
2021/11/14 06:55:16;;;;;;;19.40;15.70;;;9.40;99.90;;;;;;5052788;28;20241;-52
2021/11/14 06:57:43;;;;;;;20.85;17.30;;;9.20;99.90;;;;;;5052968;28;20285;-52
2021/11/14 07:00:12;;;;;;;24.42;17.60;;;9.20;99.90;;;;;;5051370;28;20201;-52
2021/11/14 07:02:38;;;;;;;22.17;17.65;;;9.30;99.90;;;;;;5054130;28;20194;-52
2021/11/14 07:05:05;;;;;;;21.23;16.98;;;9.30;99.90;;;;;;5033054;28;20182;-52
2021/11/14 07:07:32;;;;;;;25.92;18.33;;;9.40;99.90;;;;;;5056394;28;20696;-52
2021/11/14 07:09:57;;;;;;;21.30;17.85;;;9.20;99.90;;;;;;5050813;28;20221;-51
2021/11/14 07:12:23;;;;;;;25.50;18.93;;;9.10;99.90;;;;;;5066813;28;20216;-52
2021/11/14 07:14:50;;;;;;;24.57;18.67;;;9.10;99.90;;;;;;5063890;28;20269;-52
2021/11/14 07:17:16;;;;;;;22.25;17.52;;;9.10;99.90;;;;;;5056165;28;20459;-52
2021/11/14 07:19:42;;;;;;;19.03;16.90;;;9.50;99.90;;;;;;5069566;28;20194;-52
2021/11/14 07:22:07;;;;;;;22.48;16.83;;;9.30;99.90;;;;;;5071200;28;20238;-52
2021/11/14 07:24:33;;;;;;;21.63;16.70;;;9.40;99.90;;;;;;5057638;28;20189;-52
2021/11/14 07:26:58;;;;;;;21.87;18.40;;;9.20;99.90;;;;;;5066258;28;20192;-52
2021/11/14 07:29:25;;;;;;;25.20;18.93;;;9.50;99.90;;;;;;5057563;28;20181;-51
2021/11/14 07:31:50;;;;;;;20.35;16.63;;;9.40;99.90;;;;;;5064062;28;20212;-53
2021/11/14 07:34:16;;;;;;;23.10;16.90;;;9.70;99.90;;;;;;5053221;28;20210;-51
2021/11/14 07:36:41;;;;;;;23.73;18.40;;;9.80;99.90;;;;;;5049652;28;20189;-51
2021/11/14 07:39:07;;;;;;;19.67;16.33;;;9.80;99.90;;;;;;5046404;28;20337;-52
2021/11/14 07:41:33;;;;;;;19.13;16.43;;;9.70;99.90;;;;;;5054592;28;20619;-52
2021/11/14 07:43:59;;;;;;;21.05;16.60;;;10.00;99.90;;;;;;5057929;28;20191;-51
2021/11/14 07:46:26;;;;;;;21.03;18.20;;;9.90;99.90;;;;;;5061964;28;20330;-51
2021/11/14 07:48:52;;;;;;;21.33;15.88;;;10.00;99.90;;;;;;5059077;28;20443;-53
2021/11/14 07:51:18;;;;;;;19.13;15.85;;;10.00;99.90;;;;;;5061432;28;20751;-53
2021/11/14 07:53:44;;;;;;;18.67;16.67;;;10.30;99.90;;;;;;5052453;28;20201;-53
2021/11/14 07:56:09;;;;;;;17.60;15.10;;;10.10;99.90;;;;;;5052130;28;20528;-54
2021/11/14 07:58:35;;;;;;;19.30;16.90;;;10.30;99.90;;;;;;5050441;28;20236;-50
2021/11/14 08:01:01;;;;;;;18.80;15.60;;;10.20;99.90;;;;;;5051499;28;20205;-52
2021/11/14 08:03:31;;;;;;;19.13;16.50;;;10.10;99.90;;;;;;5049577;28;20542;-53
2021/11/14 08:05:58;;;;;;;20.02;15.70;;;10.00;99.90;;;;;;5056948;28;20296;-51
2021/11/14 08:08:24;;;;;;;17.13;15.23;;;10.30;99.90;;;;;;5046897;28;20217;-51
2021/11/14 08:10:49;;;;;;;18.07;15.60;;;10.20;99.90;;;;;;5048629;28;20260;-52
2021/11/14 08:13:15;;;;;;;17.30;15.60;;;10.30;99.90;;;;;;5051114;28;20626;-50
2021/11/14 08:15:41;;;;;;;18.07;13.97;;;10.20;99.90;;;;;;5031910;28;20192;-51
2021/11/14 08:18:08;;;;;;;18.27;15.10;;;10.10;99.90;;;;;;5049480;28;20181;-51
2021/11/14 08:20:35;;;;;;;20.45;15.63;;;10.20;99.90;;;;;;5050571;28;20279;-52
2021/11/14 08:23:03;;;;;;;18.92;16.60;;;10.10;99.90;;;;;;5045280;28;20194;-51
2021/11/14 08:25:29;;;;;;;16.88;14.77;;;10.40;99.90;;;;;;5048452;28;20276;-52
2021/11/14 08:27:55;;;;;;;19.27;15.73;;;10.60;99.90;;;;;;5053171;28;20681;-52
2021/11/14 08:30:21;;;;;;;17.25;15.43;;;10.70;99.90;;;;;;5049803;28;20972;-52
2021/11/14 08:32:48;;;;;;;16.97;15.10;;;10.50;99.90;;;;;;5049083;28;20221;-52
2021/11/14 08:35:15;;;;;;;16.98;14.52;;;10.50;99.90;;;;;;5027538;28;20979;-52
2021/11/14 08:37:41;;;;;;;18.02;15.93;;;10.30;99.90;;;;;;5049231;28;20178;-52
2021/11/14 08:40:08;;;;;;;17.77;15.85;;;10.80;99.90;;;;;;5049712;28;20215;-53
2021/11/14 08:42:34;;;;;;;16.42;14.73;;;10.80;99.90;;;;;;5051387;28;20727;-56
2021/11/14 08:45:00;;;;;;;17.48;15.50;;;10.20;99.90;;;;;;5051331;28;20534;-56
2021/11/14 08:47:26;;;;;;;17.53;14.03;;;10.80;99.90;;;;;;5045976;28;20197;-57
2021/11/14 08:49:52;;;;;;;17.33;13.63;;;11.20;99.90;;;;;;5056691;28;20483;-52
2021/11/14 08:52:17;;;;;;;17.30;15.50;;;11.00;99.90;;;;;;5051895;28;20465;-52
2021/11/14 08:54:43;;;;;;;16.90;14.60;;;10.90;99.90;;;;;;5033413;28;20186;-52
2021/11/14 08:57:10;;;;;;;16.20;14.40;;;11.00;99.90;;;;;;5056896;28;20188;-51
2021/11/14 08:59:36;;;;;;;14.93;13.35;;;11.10;99.90;;;;;;5045414;28;20214;-52
2021/11/14 09:02:03;;;;;;;15.48;13.95;;;11.40;99.90;;;;;;5042076;28;20508;-51
2021/11/14 09:04:28;;;;;;;17.13;13.80;;;11.70;99.90;;;;;;5048630;28;20223;-52
2021/11/14 09:06:55;;;;;;;14.53;13.13;;;11.50;99.90;;;;;;5045619;28;20196;-53
2021/11/14 09:09:22;;;;;;;13.18;11.88;;;11.60;99.90;;;;;;5050038;28;20471;-52
2021/11/14 09:11:49;;;;;;;14.38;12.98;;;11.40;99.90;;;;;;5057367;28;20649;-53
2021/11/14 09:14:16;;;;;;;14.70;13.18;;;11.40;99.90;;;;;;5049313;28;20309;-54
2021/11/14 09:16:42;;;;;;;15.27;13.68;;;11.50;99.90;;;;;;5047580;28;20187;-54
2021/11/14 09:19:08;;;;;;;16.05;13.68;;;11.80;99.90;;;;;;5054803;28;20179;-54
2021/11/14 09:21:38;;;;;;;15.30;13.70;;;11.60;99.90;;;;;;5053303;28;20203;-54
2021/11/14 09:24:04;;;;;;;15.38;13.65;;;11.70;99.90;;;;;;5054245;28;20239;-54
2021/11/14 09:26:30;;;;;;;15.45;13.50;;;11.90;99.90;;;;;;5061423;28;20205;-54
2021/11/14 09:28:55;;;;;;;14.80;13.20;;;11.90;99.90;;;;;;5055638;28;20189;-53
2021/11/14 09:31:21;;;;;;;13.00;11.60;;;11.60;99.90;;;;;;5044327;28;20300;-53
2021/11/14 09:33:47;;;;;;;13.73;12.23;;;11.70;99.90;;;;;;5053489;28;20358;-52
2021/11/14 09:36:13;;;;;;;14.33;12.93;;;11.70;99.90;;;;;;5044986;28;20270;-53
2021/11/14 09:38:39;;;;;;;14.10;12.70;;;11.60;99.90;;;;;;5049439;28;20605;-53
2021/11/14 09:41:07;;;;;;;15.10;13.18;;;11.60;99.90;;;;;;5052166;28;20204;-51
2021/11/14 09:43:34;;;;;;;14.35;12.90;;;11.50;99.90;;;;;;5053229;28;20235;-53
2021/11/14 09:46:00;;;;;;;15.60;13.15;;;11.60;99.90;;;;;;5049114;28;20186;-53
2021/11/14 09:48:26;;;;;;;16.17;13.48;;;11.40;99.90;;;;;;5053440;28;20623;-53
2021/11/14 09:50:57;;;;;;;16.13;12.95;;;11.50;99.90;;;;;;5063370;28;20305;-53
2021/11/14 09:53:29;;;;;;;15.15;13.57;;;11.80;99.90;;;;;;5047523;28;20211;-53
2021/11/14 09:55:57;;;;;;;14.07;12.68;;;11.50;99.90;;;;;;5052216;28;20651;-53
2021/11/14 09:58:23;;;;;;;15.73;14.13;;;11.50;99.90;;;;;;5040578;28;20180;-53
2021/11/14 10:00:50;;;;;;;14.20;12.73;;;11.60;99.90;;;;;;5065359;28;20715;-54
2021/11/14 10:03:16;;;;;;;15.82;13.90;;;11.60;99.90;;;;;;5038168;28;20691;-52
2021/11/14 10:05:41;;;;;;;17.00;14.37;;;11.70;99.90;;;;;;5050675;28;20195;-54
2021/11/14 10:08:09;;;;;;;15.87;14.13;;;11.60;99.90;;;;;;5044781;28;20210;-53
2021/11/14 10:10:40;;;;;;;15.05;12.85;;;11.50;99.90;;;;;;5051884;28;20708;-53
2021/11/14 10:13:32;;;;;;;15.52;13.90;;;11.50;99.90;;;;;;5051573;28;20265;-54
2021/11/14 10:16:15;;;;;;;15.80;13.40;;;11.50;99.90;;;;;;5032186;28;20547;-52
2021/11/14 10:18:50;;;;;;;14.43;12.93;;;11.00;99.90;;;;;;5041063;28;20182;-53
2021/11/14 10:21:17;;;;;;;15.95;13.60;;;11.50;99.90;;;;;;5048317;28;20691;-52
2021/11/14 10:23:43;;;;;;;16.08;13.93;;;11.60;99.90;;;;;;5050993;28;20242;-53
2021/11/14 10:26:11;;;;;;;15.05;13.40;;;11.60;99.90;;;;;;5051377;28;20250;-52
2021/11/14 10:28:43;;;;;;;14.05;12.52;;;11.70;99.90;;;;;;5043936;28;20187;-52
2021/11/14 10:31:10;;;;;;;15.80;13.95;;;11.50;99.90;;;;;;5047601;28;20213;-51
2021/11/14 10:33:36;;;;;;;16.67;14.70;;;11.60;99.90;;;;;;5050578;28;20214;-52
2021/11/14 10:36:04;;;;;;;16.00;14.30;;;11.60;99.90;;;;;;5052138;28;20180;-52
2021/11/14 10:38:33;;;;;;;16.33;14.63;;;12.00;99.90;;;;;;5045439;28;20436;-52
2021/11/14 10:41:03;;;;;;;16.73;14.55;;;11.80;99.90;;;;;;5052645;28;20205;-52
2021/11/14 10:43:30;;;;;;;18.95;16.05;;;11.60;99.90;;;;;;5049240;28;20203;-52
2021/11/14 10:45:58;;;;;;;15.63;14.02;;;11.70;99.90;;;;;;5052946;28;20187;-52
2021/11/14 10:48:26;;;;;;;15.07;13.13;;;11.80;99.90;;;;;;5055293;28;20721;-52
2021/11/14 10:51:00;;;;;;;17.02;15.15;;;11.60;99.90;;;;;;5044586;28;20215;-52
2021/11/14 10:53:30;;;;;;;17.58;14.13;;;11.50;99.90;;;;;;5048055;28;20206;-52
2021/11/14 10:56:00;;;;;;;20.42;14.20;;;11.50;99.90;;;;;;5049690;28;20743;-52
2021/11/14 10:58:28;;;;;;;14.68;12.80;;;11.50;99.90;;;;;;5057480;28;20619;-52
2021/11/14 11:00:58;;;;;;;15.38;13.70;;;11.70;99.90;;;;;;5051649;28;20206;-51
2021/11/14 11:03:33;;;;;;;18.88;14.60;;;11.60;99.90;;;;;;5044872;28;20664;-52
2021/11/14 11:06:00;;;;;;;18.35;14.48;;;11.60;99.90;;;;;;5044695;28;20191;-52
2021/11/14 11:08:26;;;;;;;16.85;13.63;;;11.40;99.90;;;;;;5049095;28;20188;-52
2021/11/14 11:10:56;;;;;;;18.08;13.85;;;11.60;99.90;;;;;;5049844;28;20283;-52
2021/11/14 11:13:43;;;;;;;17.88;14.25;;;11.60;99.90;;;;;;5049272;28;20230;-52
2021/11/14 11:16:23;;;;;;;17.20;14.02;;;11.60;99.90;;;;;;5029965;28;20210;-51
2021/11/14 11:19:01;;;;;;;15.43;12.98;;;11.50;99.90;;;;;;5061102;28;20269;-53
2021/11/14 11:21:35;;;;;;;17.75;14.38;;;11.50;99.90;;;;;;5057220;28;20198;-50
2021/11/14 11:24:05;;;;;;;17.23;13.45;;;11.50;99.90;;;;;;5044902;28;20228;-51
2021/11/14 11:26:31;;;;;;;18.63;13.10;;;11.50;99.90;;;;;;5028541;28;20743;-53
2021/11/14 11:28:56;;;;;;;16.03;13.07;;;11.40;99.90;;;;;;5050148;28;20309;-54
2021/11/14 11:31:25;;;;;;;16.37;14.20;;;11.80;99.90;;;;;;5052394;28;20295;-52
2021/11/14 11:33:54;;;;;;;18.52;13.18;;;12.10;99.90;;;;;;5049539;28;20216;-53
2021/11/14 11:36:22;;;;;;;17.10;12.88;;;12.10;99.90;;;;;;5053591;28;20578;-52
2021/11/14 11:38:48;;;;;;;16.02;12.35;;;12.10;99.90;;;;;;5057569;28;20596;-53
2021/11/14 11:41:16;;;;;;;16.60;13.07;;;12.00;99.90;;;;;;5050349;28;20212;-54
2021/11/14 11:43:43;;;;;;;14.70;12.82;;;12.10;99.90;;;;;;5049673;28;20578;-53
2021/11/14 11:46:10;;;;;;;16.67;11.52;;;11.90;99.90;;;;;;5042600;28;20199;-53
2021/11/14 11:48:45;;;;;;;16.63;12.98;;;12.10;99.90;;;;;;5050986;28;20263;-53
2021/11/14 11:51:28;;;;;;;16.00;12.68;;;12.10;99.90;;;;;;5051000;28;20229;-53
2021/11/14 11:54:12;;;;;;;14.77;11.98;;;11.70;99.90;;;;;;5054044;28;20217;-53
2021/11/14 11:56:45;;;;;;;15.70;13.02;;;11.90;99.90;;;;;;5049827;28;20560;-52
2021/11/14 11:59:17;;;;;;;13.80;11.80;;;11.80;99.90;;;;;;5044088;28;20409;-52
2021/11/14 12:01:51;;;;;;;16.75;14.20;;;12.00;99.90;;;;;;5050728;28;20176;-52
2021/11/14 12:04:21;;;;;;;15.35;12.43;;;11.90;99.90;;;;;;5050466;28;20186;-53
2021/11/14 12:06:57;;;;;;;18.00;14.82;;;11.70;99.90;;;;;;5045148;28;20248;-52
2021/11/14 12:09:26;;;;;;;14.63;13.10;;;11.80;99.90;;;;;;5046599;28;20216;-53
2021/11/14 12:11:53;;;;;;;17.30;13.77;;;11.80;99.90;;;;;;5055183;28;20674;-52
2021/11/14 12:14:18;;;;;;;14.57;13.02;;;12.00;99.90;;;;;;5054715;28;20201;-52
2021/11/14 12:17:02;;;;;;;17.43;15.60;;;12.10;99.90;;;;;;5044608;28;20203;-52
2021/11/14 12:19:36;;;;;;;18.25;14.85;;;11.80;99.90;;;;;;5041766;28;20195;-51
2021/11/14 12:22:08;;;;;;;16.38;13.70;;;12.00;99.90;;;;;;5059994;28;20727;-50
2021/11/14 12:25:07;;;;;;;15.77;13.75;;;12.30;99.90;;;;;;5051077;28;20188;-52
2021/11/14 12:27:35;;;;;;;15.90;13.30;;;12.20;99.90;;;;;;5032513;28;20200;-52
2021/11/14 12:30:11;;;;;;;18.30;14.07;;;12.60;99.90;;;;;;5050048;28;20199;-54
2021/11/14 12:32:51;;;;;;;14.68;13.02;;;12.60;99.90;;;;;;5038725;28;20204;-53
2021/11/14 12:35:32;;;;;;;15.27;13.27;;;12.80;99.90;;;;;;5050787;28;20667;-51
2021/11/14 12:38:02;;;;;;;16.67;14.45;;;12.90;99.90;;;;;;5044438;28;20600;-53
2021/11/14 12:40:40;;;;;;;17.23;14.35;;;12.60;99.90;;;;;;5055007;28;20273;-53
2021/11/14 12:43:15;;;;;;;14.35;11.85;;;12.90;99.90;;;;;;5058815;28;20563;-53